Time;durP1;ratioP1;P1;durP2;ratioP2;P2;SDS_P1;SDS_P2;PMS_P1;PMS_P2;Temp;Humidity;BMP_temperature;BMP_pressure;BME280_temperature;BME280_humidity;BME280_pressure;Samples;Min_cycle;Max_cycle;Signal;HPM_P1;HPM_P2
2022/03/19 00:02:22;;;;;;;8.80;6.43;;;;;;;7.53;57.02;103657.72;4993427;28;102386;-50
2022/03/19 00:04:51;;;;;;;9.83;6.93;;;;;;;7.52;57.24;103651.44;4994435;28;102652;-50
2022/03/19 00:07:18;;;;;;;8.43;6.32;;;;;;;7.53;57.55;103644.16;4990440;28;104008;-50
2022/03/19 00:09:46;;;;;;;9.05;6.38;;;;;;;7.53;57.42;103644.16;4993056;28;102415;-50
2022/03/19 00:12:14;;;;;;;9.50;6.75;;;;;;;7.52;57.22;103645.19;4993237;28;102451;-51
2022/03/19 00:14:41;;;;;;;7.50;5.60;;;;;;;7.52;56.96;103648.75;4994413;28;102234;-50
2022/03/19 00:17:10;;;;;;;10.02;6.75;;;;;;;7.51;57.03;103643.50;4989327;28;104118;-49
2022/03/19 00:19:38;;;;;;;9.93;6.65;;;;;;;7.51;57.46;103638.94;4973284;28;102158;-50
2022/03/19 00:22:07;;;;;;;7.53;6.17;;;;;;;7.52;56.78;103642.47;4973880;28;102509;-50
2022/03/19 00:24:36;;;;;;;8.70;5.93;;;;;;;7.51;57.25;103644.34;4974545;28;102178;-50
2022/03/19 00:27:04;;;;;;;9.05;5.97;;;;;;;7.52;57.74;103639.78;4977337;28;104046;-50
2022/03/19 00:29:32;;;;;;;9.02;6.13;;;;;;;7.52;57.12;103637.06;4973150;28;102245;-50
2022/03/19 00:31:59;;;;;;;8.18;5.85;;;;;;;7.50;56.55;103631.84;4979238;28;102479;-50
2022/03/19 00:34:26;;;;;;;8.35;5.90;;;;;;;7.50;57.53;103630.97;4977119;28;102272;-50
2022/03/19 00:36:53;;;;;;;9.48;6.13;;;;;;;7.52;57.40;103634.34;4988894;28;104072;-50
2022/03/19 00:39:19;;;;;;;8.27;6.05;;;;;;;7.50;57.18;103629.13;4980047;28;102158;-50
2022/03/19 00:41:49;;;;;;;7.28;5.80;;;;;;;7.51;57.25;103633.50;4974477;28;102028;-50
2022/03/19 00:44:21;;;;;;;7.32;5.53;;;;;;;7.51;56.41;103627.25;4989002;28;102295;-50
2022/03/19 00:46:49;;;;;;;7.18;5.70;;;;;;;7.52;57.23;103631.63;4983952;28;103961;-50
2022/03/19 00:49:16;;;;;;;7.32;5.63;;;;;;;7.50;56.91;103621.00;4992636;28;102585;-49
2022/03/19 00:51:43;;;;;;;7.85;5.63;;;;;;;7.50;56.82;103618.28;4992661;28;101824;-50
2022/03/19 00:54:11;;;;;;;7.80;5.65;;;;;;;7.49;57.00;103613.88;4988576;28;102882;-50
2022/03/19 00:56:38;;;;;;;7.38;5.60;;;;;;;7.50;57.21;103620.13;4973450;28;103902;-50
2022/03/19 00:59:05;;;;;;;7.03;5.53;;;;;;;7.50;56.52;103614.69;4992506;28;101924;-50
2022/03/19 01:01:35;;;;;;;6.40;4.93;;;;;;;7.50;57.17;103609.28;4992478;28;102279;-50
2022/03/19 01:04:02;;;;;;;7.53;5.23;;;;;;;7.49;56.97;103608.44;4993393;28;102103;-50
2022/03/19 01:06:33;;;;;;;7.35;5.65;;;;;;;7.49;56.71;103616.56;4989582;28;103926;-50
2022/03/19 01:09:03;;;;;;;5.82;4.97;;;;;;;7.49;57.16;103607.59;4992896;28;102373;-50
2022/03/19 01:11:41;;;;;;;6.95;5.68;;;;;;;7.48;57.23;103614.91;4952846;28;101867;-50
2022/03/19 01:14:28;;;;;;;7.57;5.15;;;;;;;7.49;57.20;103607.59;4954205;28;102117;-49
2022/03/19 01:17:14;;;;;;;7.70;5.32;;;;;;;7.47;56.93;103611.34;4951427;28;103866;-50
2022/03/19 01:19:53;;;;;;;8.00;5.07;;;;;;;7.48;57.85;103617.59;4952985;28;102198;-50
2022/03/19 01:22:21;;;;;;;;;;;;;;;7.47;57.01;103611.34;4948721;28;102084;-50
2022/03/19 01:24:49;;;;;;;7.18;5.18;;;;;;;7.47;57.71;103605.94;4937690;28;102385;-50
2022/03/19 01:27:15;;;;;;;6.93;5.20;;;;;;;7.48;57.16;103614.91;4951201;28;104060;-50
2022/03/19 01:29:42;;;;;;;7.20;5.47;;;;;;;7.46;56.63;103608.78;4949580;28;102374;-49
2022/03/19 01:32:09;;;;;;;6.53;5.18;;;;;;;7.47;57.73;103614.06;4950117;28;102324;-50
2022/03/19 01:34:37;;;;;;;6.85;5.00;;;;;;;7.47;57.26;103605.09;4951234;28;104650;-50
2022/03/19 01:37:05;;;;;;;6.57;4.78;;;;;;;7.45;56.92;103602.53;4942882;28;104090;-50
2022/03/19 01:39:31;;;;;;;6.65;5.03;;;;;;;7.45;57.72;103610.66;4945516;28;102333;-49
2022/03/19 01:41:58;;;;;;;7.10;4.93;;;;;;;7.46;57.78;103609.66;4932729;28;102611;-50
2022/03/19 01:44:24;;;;;;;6.10;5.13;;;;;;;7.47;57.22;103610.50;4956354;28;102005;-49
2022/03/19 01:46:56;;;;;;;8.73;5.20;;;;;;;7.46;57.66;103612.38;4963403;28;103892;-50
2022/03/19 01:49:23;;;;;;;6.47;5.30;;;;;;;7.45;57.58;103613.38;4952459;28;102319;-50
2022/03/19 01:51:52;;;;;;;5.38;4.60;;;;;;;7.45;57.31;103613.38;4951609;28;102131;-50
2022/03/19 01:54:25;;;;;;;5.57;5.00;;;;;;;7.45;57.25;103618.78;4952824;28;102225;-49
2022/03/19 01:56:54;;;;;;;5.60;4.38;;;;;;;7.44;57.52;103619.84;4950820;28;103947;-50
2022/03/19 01:59:34;;;;;;;6.47;4.90;;;;;;;7.44;57.39;103622.53;4952313;28;102225;-50
2022/03/19 02:02:02;;;;;;;6.22;5.00;;;;;;;7.45;56.91;103623.38;4952079;28;101939;-49
2022/03/19 02:04:29;;;;;;;6.57;4.95;;;;;;;7.45;57.53;103623.38;4952576;28;102298;-49
2022/03/19 02:07:05;;;;;;;8.27;5.13;;;;;;;7.44;57.20;103619.84;4949227;28;103745;-50
2022/03/19 02:09:36;;;;;;;5.35;4.60;;;;;;;7.45;56.43;103618.78;4958255;28;102538;-50
2022/03/19 02:12:04;;;;;;;6.88;5.07;;;;;;;7.45;57.32;103623.38;4971405;28;102377;-50
2022/03/19 02:14:34;;;;;;;7.70;4.75;;;;;;;7.44;57.27;103625.25;4972708;28;102226;-50
2022/03/19 02:17:03;;;;;;;5.97;4.95;;;;;;;7.45;57.07;103620.66;4977155;28;104087;-50
2022/03/19 02:19:31;;;;;;;5.15;4.65;;;;;;;7.45;57.26;103628.78;4991559;28;102630;-50
2022/03/19 02:21:58;;;;;;;5.00;4.43;;;;;;;7.45;57.58;103628.78;4982275;28;102026;-50
2022/03/19 02:27:12;;;;;;;5.20;4.43;;;;;;;7.44;57.26;103625.25;4989942;28;103896;-50
2022/03/19 02:29:39;;;;;;;6.40;4.63;;;;;;;7.44;57.00;103625.25;4988009;28;102555;-50
2022/03/19 02:32:07;;;;;;;5.07;4.38;;;;;;;7.44;57.79;103619.84;4990792;28;102190;-50
2022/03/19 02:34:34;;;;;;;5.90;4.50;;;;;;;7.44;56.99;103622.53;4975305;28;102521;-50
2022/03/19 02:37:01;;;;;;;5.40;4.22;;;;;;;7.45;57.26;103626.94;4984869;28;102998;-50
2022/03/19 02:39:33;;;;;;;5.10;4.60;;;;;;;7.45;57.42;103623.38;4974997;28;102385;-50
2022/03/19 02:42:01;;;;;;;4.95;4.25;;;;;;;7.45;57.08;103629.63;4975140;28;102029;-50
2022/03/19 02:44:29;;;;;;;5.15;4.28;;;;;;;7.44;56.99;103625.25;4972496;28;102371;-50
2022/03/19 02:46:58;;;;;;;6.00;4.68;;;;;;;7.44;56.86;103633.38;4971561;28;104136;-50
2022/03/19 02:49:25;;;;;;;5.05;4.55;;;;;;;7.44;57.11;103638.78;4974024;28;101850;-50
2022/03/19 02:51:53;;;;;;;6.18;4.90;;;;;;;7.45;56.70;103643.19;4983196;28;102071;-50
2022/03/19 02:54:22;;;;;;;6.10;4.43;;;;;;;7.44;56.60;103638.78;4993221;28;102258;-50
2022/03/19 02:56:51;;;;;;;6.20;4.45;;;;;;;7.45;57.16;103642.34;4977102;28;103945;-50
2022/03/19 02:59:20;;;;;;;5.50;4.20;;;;;;;7.44;57.60;103636.09;4982742;28;101894;-50
2022/03/19 03:01:49;;;;;;;5.75;4.68;;;;;;;7.44;57.42;103644.22;4992638;28;102469;-49
2022/03/19 03:04:16;;;;;;;6.10;5.03;;;;;;;7.44;57.01;103644.22;4989149;28;101924;-50
2022/03/19 03:06:45;;;;;;;4.83;4.33;;;;;;;7.45;57.35;103643.19;4975040;28;103690;-50
2022/03/19 03:09:13;;;;;;;5.88;4.25;;;;;;;7.46;57.68;103647.59;4975099;28;102160;-50
2022/03/19 03:11:40;;;;;;;6.47;4.30;;;;;;;7.44;57.66;103641.50;4976852;28;101887;-50
2022/03/19 03:14:10;;;;;;;6.38;4.65;;;;;;;7.45;57.62;103643.19;4977262;28;102139;-50
2022/03/19 03:16:38;;;;;;;5.88;4.38;;;;;;;7.45;57.08;103647.75;4994327;28;103955;-50
2022/03/19 03:19:06;;;;;;;5.65;4.50;;;;;;;7.45;56.91;103648.59;4980633;28;102472;-50
2022/03/19 03:21:41;;;;;;;7.03;4.65;;;;;;;7.46;56.84;103652.16;4976536;28;102649;-50
2022/03/19 03:24:08;;;;;;;5.00;4.45;;;;;;;7.45;57.45;103645.91;4994811;28;102358;-50
2022/03/19 03:26:37;;;;;;;4.30;3.90;;;;;;;7.46;57.03;103646.72;4993145;28;103955;-50
2022/03/19 03:29:04;;;;;;;4.90;4.40;;;;;;;7.46;57.10;103649.44;4994518;28;102470;-50
2022/03/19 03:31:33;;;;;;;5.03;4.50;;;;;;;7.46;57.35;103653.03;4993732;28;102455;-50
2022/03/19 03:34:05;;;;;;;6.43;4.30;;;;;;;7.45;57.12;103659.44;4979269;28;102653;-50
2022/03/19 03:36:32;;;;;;;5.32;4.30;;;;;;;7.46;57.35;103663.88;4985924;28;104111;-50
2022/03/19 03:39:00;;;;;;;5.30;3.88;;;;;;;7.46;57.15;103658.44;4974229;28;102242;-50
2022/03/19 03:41:27;;;;;;;5.03;4.32;;;;;;;7.47;56.88;103670.13;4974408;28;101825;-50
2022/03/19 03:44:00;;;;;;;5.95;4.55;;;;;;;7.47;57.20;103673.66;4975456;28;102327;-50
2022/03/19 03:46:27;;;;;;;4.70;4.18;;;;;;;7.47;57.18;103679.09;4973634;28;103674;-50
2022/03/19 03:48:55;;;;;;;5.65;4.43;;;;;;;7.47;57.62;103680.97;4992191;28;102431;-49
2022/03/19 03:51:26;;;;;;;4.88;4.38;;;;;;;7.46;57.52;103677.41;4973491;28;102258;-50
2022/03/19 03:53:53;;;;;;;4.82;3.92;;;;;;;7.47;57.22;103684.50;4974773;28;102113;-50
2022/03/19 03:56:20;;;;;;;5.35;4.53;;;;;;;7.47;56.96;103689.94;4972951;28;103877;-50
2022/03/19 03:58:47;;;;;;;5.47;4.80;;;;;;;7.49;56.95;103699.75;4991287;28;102410;-50
2022/03/19 04:01:14;;;;;;;6.57;4.63;;;;;;;7.49;57.58;103694.31;4993651;28;101795;-50
2022/03/19 04:04:02;;;;;;;4.90;4.38;;;;;;;7.47;57.50;103692.63;4994295;28;102362;-49
2022/03/19 04:06:29;;;;;;;6.65;4.47;;;;;;;7.49;57.54;103697.03;4991469;28;103870;-50
2022/03/19 04:08:55;;;;;;;7.57;4.10;;;;;;;7.47;57.27;103703.47;4989660;28;102446;-50
2022/03/19 04:11:23;;;;;;;7.10;4.20;;;;;;;7.47;57.25;103703.47;4993001;28;102075;-49
2022/03/19 04:13:49;;;;;;;5.20;4.35;;;;;;;7.47;57.22;103711.59;4989932;28;102078;-50
2022/03/19 04:16:16;;;;;;;5.80;4.28;;;;;;;7.49;57.50;103705.16;4979865;28;103864;-50
2022/03/19 04:18:44;;;;;;;6.68;4.43;;;;;;;7.47;57.25;103703.47;4992544;28;102003;-50
2022/03/19 04:21:11;;;;;;;5.63;4.22;;;;;;;7.47;57.67;103708.91;4987103;28;102094;-50
2022/03/19 04:23:38;;;;;;;6.28;4.68;;;;;;;7.49;57.57;103716.00;4995126;28;102194;-50
2022/03/19 04:26:05;;;;;;;9.02;4.50;;;;;;;7.47;56.67;103714.31;4993578;28;103872;-50
2022/03/19 04:28:32;;;;;;;6.13;4.30;;;;;;;7.47;58.18;103714.31;4992190;28;102488;-49
2022/03/19 04:30:59;;;;;;;6.22;4.88;;;;;;;7.47;57.29;103718.91;4993896;28;102490;-50
2022/03/19 04:33:33;;;;;;;5.15;4.18;;;;;;;7.47;57.20;103718.91;4992846;28;102176;-50
2022/03/19 04:38:47;;;;;;;6.55;4.53;;;;;;;7.46;57.58;103718.06;4991531;28;102683;-50
2022/03/19 04:41:16;;;;;;;5.63;4.47;;;;;;;7.45;57.07;103715.50;4993172;28;102278;-50
2022/03/19 04:43:44;;;;;;;5.43;4.28;;;;;;;7.45;58.07;103724.47;4975508;28;102694;-50
2022/03/19 04:46:15;;;;;;;5.57;4.20;;;;;;;7.46;56.86;103728.91;4991156;28;103593;-50
2022/03/19 04:48:45;;;;;;;6.28;4.30;;;;;;;7.45;57.39;103731.78;4990016;28;101998;-50
2022/03/19 04:51:12;;;;;;;6.60;4.38;;;;;;;7.45;56.74;103723.63;4981918;28;102102;-50
2022/03/19 04:53:39;;;;;;;5.20;4.68;;;;;;;7.44;56.60;103722.78;4973422;28;102247;-50
2022/03/19 04:56:07;;;;;;;6.30;4.65;;;;;;;7.44;57.67;103730.94;4981564;28;104109;-50
2022/03/19 04:58:40;;;;;;;4.90;4.40;;;;;;;7.43;57.59;103734.66;4991296;28;102191;-50
2022/03/19 05:01:07;;;;;;;6.35;4.68;;;;;;;7.44;56.94;103736.34;4990617;28;102271;-50
2022/03/19 05:03:43;;;;;;;5.43;4.38;;;;;;;7.42;57.11;103732.97;4991387;28;101992;-50
2022/03/19 05:06:10;;;;;;;5.15;4.53;;;;;;;7.43;57.09;103729.25;4991857;28;104655;-50
2022/03/19 05:08:41;;;;;;;5.63;4.40;;;;;;;7.42;57.71;103719.41;4992153;28;102451;-50
2022/03/19 05:11:17;;;;;;;6.07;4.85;;;;;;;7.42;57.38;103730.25;4991173;28;101880;-50
2022/03/19 05:13:53;;;;;;;5.57;4.80;;;;;;;7.41;57.71;103722.31;4993310;28;102493;-50
2022/03/19 05:16:23;;;;;;;5.97;4.50;;;;;;;7.41;57.08;103730.44;4991416;28;103989;-50
2022/03/19 05:18:51;;;;;;;5.80;4.63;;;;;;;7.41;57.11;103730.44;4992237;28;102485;-50
2022/03/19 05:21:24;;;;;;;6.10;5.03;;;;;;;7.40;57.05;103729.59;4990216;28;102041;-50
2022/03/19 05:23:59;;;;;;;8.13;4.65;;;;;;;7.40;57.13;103729.59;4975521;28;102310;-50
2022/03/19 05:26:36;;;;;;;5.68;4.55;;;;;;;7.41;57.17;103736.69;4972387;28;103925;-50
2022/03/19 05:29:15;;;;;;;4.85;4.22;;;;;;;7.40;56.87;103735.00;4972661;28;102410;-49
2022/03/19 05:31:42;;;;;;;5.95;4.30;;;;;;;7.40;57.74;103734.19;4989349;28;121395;-49
2022/03/19 05:37:04;;;;;;;6.07;4.88;;;;;;;7.40;56.62;103726.88;4991173;28;103831;-50
2022/03/19 05:39:39;;;;;;;8.57;5.55;;;;;;;7.42;57.16;103732.97;4989398;28;102432;-50
2022/03/19 05:42:07;;;;;;;7.18;4.95;;;;;;;7.41;57.23;103742.13;4991999;28;102322;-51
2022/03/19 05:44:38;;;;;;;6.63;5.28;;;;;;;7.42;56.88;103743.78;4993011;28;101986;-50
2022/03/19 05:47:05;;;;;;;6.30;5.35;;;;;;;7.40;57.06;103745.84;4991127;28;103927;-50
2022/03/19 05:49:32;;;;;;;6.72;5.10;;;;;;;7.40;56.93;103740.44;4989101;28;102310;-52
2022/03/19 05:52:05;;;;;;;5.93;4.80;;;;;;;7.41;57.86;103750.25;4992395;28;102197;-49
2022/03/19 05:54:31;;;;;;;5.63;4.63;;;;;;;7.40;57.34;103753.97;4993086;28;102752;-50
2022/03/19 05:56:58;;;;;;;6.15;4.57;;;;;;;7.40;57.60;103737.72;4989224;28;103632;-50
2022/03/19 05:59:26;;;;;;;7.38;5.10;;;;;;;7.41;57.20;103760.25;4991962;28;102113;-50
2022/03/19 06:01:53;;;;;;;6.47;5.30;;;;;;;7.39;56.92;103749.59;4991847;28;101922;-50
2022/03/19 06:04:20;;;;;;;6.00;4.90;;;;;;;7.40;56.86;103750.44;4992572;28;102551;-50
2022/03/19 06:06:47;;;;;;;5.78;4.80;;;;;;;7.40;56.86;103751.28;4990836;28;103958;-49
2022/03/19 06:09:21;;;;;;;6.97;5.43;;;;;;;7.41;56.85;103752.13;4992710;28;102504;-50
2022/03/19 06:11:53;;;;;;;5.75;5.15;;;;;;;7.41;57.43;103752.13;4991832;28;102309;-49
2022/03/19 06:14:23;;;;;;;6.85;5.20;;;;;;;7.40;57.09;103748.56;4985709;28;102882;-50
2022/03/19 06:16:54;;;;;;;7.05;5.30;;;;;;;7.39;57.82;103749.59;4990325;28;103926;-49
2022/03/19 06:19:21;;;;;;;5.55;5.00;;;;;;;7.40;57.03;103745.84;4983055;28;102387;-50
2022/03/19 06:21:48;;;;;;;6.38;5.30;;;;;;;7.40;56.70;103748.56;4985984;28;102574;-50
2022/03/19 06:24:14;;;;;;;7.05;5.18;;;;;;;7.38;56.84;103745.16;4988865;28;102911;-50
2022/03/19 06:26:41;;;;;;;7.53;5.20;;;;;;;7.39;56.98;103746.00;4985123;28;105720;-50
2022/03/19 06:29:08;;;;;;;6.93;5.82;;;;;;;7.39;57.29;103746.88;4983119;28;102415;-50
2022/03/19 06:31:35;;;;;;;6.32;5.50;;;;;;;7.39;57.42;103737.88;4975073;28;102288;-50
2022/03/19 06:34:03;;;;;;;7.22;6.15;;;;;;;7.38;56.96;103747.88;4986933;28;102181;-50
2022/03/19 06:39:15;;;;;;;5.95;4.97;;;;;;;7.40;57.45;103728.75;4981175;28;102452;-50
2022/03/19 06:41:42;;;;;;;9.23;5.70;;;;;;;7.40;57.68;103735.00;4986938;28;102405;-50
2022/03/19 06:44:09;;;;;;;8.57;6.18;;;;;;;7.40;56.77;103745.84;4992747;28;102183;-50
2022/03/19 06:46:36;;;;;;;7.30;5.55;;;;;;;7.40;57.66;103739.59;4986903;28;104094;-50
2022/03/19 06:49:04;;;;;;;7.85;5.80;;;;;;;7.41;56.74;103731.28;4981835;28;101896;-51
2022/03/19 06:51:31;;;;;;;7.57;5.45;;;;;;;7.41;56.63;103747.53;4973537;28;102056;-50
2022/03/19 06:53:58;;;;;;;6.28;5.28;;;;;;;7.40;57.49;103735.00;4982513;28;102581;-50
2022/03/19 06:56:25;;;;;;;7.03;5.20;;;;;;;7.40;57.22;103751.28;4974359;28;103916;-50
2022/03/19 06:58:52;;;;;;;8.75;5.93;;;;;;;7.40;56.86;103740.44;4981992;28;102325;-50
2022/03/19 07:01:18;;;;;;;7.43;5.82;;;;;;;7.40;56.56;103745.00;4992984;28;102242;-50
2022/03/19 07:03:46;;;;;;;7.32;5.95;;;;;;;7.40;57.19;103740.44;4980886;28;102634;-50
2022/03/19 07:06:15;;;;;;;5.82;5.22;;;;;;;7.40;57.25;103740.44;4973697;28;104062;-50
2022/03/19 07:08:42;;;;;;;8.05;6.00;;;;;;;7.40;56.34;103739.59;4983746;28;102267;-49
2022/03/19 07:11:09;;;;;;;6.75;5.47;;;;;;;7.40;57.16;103745.00;4993636;28;102203;-50
2022/03/19 07:13:36;;;;;;;6.47;5.43;;;;;;;7.39;57.28;103743.31;4995109;28;102086;-50
2022/03/19 07:16:04;;;;;;;6.32;5.22;;;;;;;7.38;56.20;103742.47;4988220;28;103940;-50
2022/03/19 07:18:33;;;;;;;6.40;5.53;;;;;;;7.38;56.44;103741.63;4992116;28;102313;-50
2022/03/19 07:21:00;;;;;;;6.53;5.45;;;;;;;7.39;56.23;103746.88;4993548;28;102486;-50
2022/03/19 07:23:28;;;;;;;6.20;5.50;;;;;;;7.39;56.33;103738.75;4975680;28;102396;-49
2022/03/19 07:25:59;;;;;;;6.97;5.50;;;;;;;7.39;56.73;103748.72;4986170;28;103712;-50
2022/03/19 07:28:27;;;;;;;6.40;5.55;;;;;;;7.38;57.27;103737.03;4993874;28;102346;-49
2022/03/19 07:30:54;;;;;;;6.15;5.55;;;;;;;7.39;56.28;103749.59;4993507;28;101966;-50
2022/03/19 07:33:21;;;;;;;7.88;5.38;;;;;;;7.38;57.09;103752.47;4994067;28;102340;-49
2022/03/19 07:35:48;;;;;;;7.00;4.60;;;;;;;7.38;56.61;103741.63;4979503;28;104298;-50
2022/03/19 07:38:15;;;;;;;8.45;5.03;;;;;;;7.37;55.99;103740.78;4981115;28;103192;-50
2022/03/19 07:43:30;;;;;;;7.60;5.22;;;;;;;7.38;56.45;103747.88;4976457;28;102587;-50
2022/03/19 07:45:57;;;;;;;6.93;5.00;;;;;;;7.38;56.70;103742.47;4976619;28;104121;-50
2022/03/19 07:48:25;;;;;;;6.03;4.72;;;;;;;7.37;55.77;103743.50;4976846;28;103097;-50
2022/03/19 07:50:52;;;;;;;5.07;4.57;;;;;;;7.37;55.90;103740.78;4981261;28;103417;-50
2022/03/19 07:53:19;;;;;;;7.50;5.10;;;;;;;7.37;55.96;103757.03;4980970;28;102661;-50
2022/03/19 07:55:50;;;;;;;6.63;4.97;;;;;;;7.38;56.86;103752.47;4982863;28;103889;-50
2022/03/19 07:58:17;;;;;;;6.28;4.80;;;;;;;7.37;55.97;103751.63;4991932;28;102498;-50
2022/03/19 08:00:45;;;;;;;5.97;5.00;;;;;;;7.38;56.48;103747.88;4990581;28;102121;-50
2022/03/19 08:03:12;;;;;;;6.10;4.45;;;;;;;7.38;56.42;103752.47;4994014;28;102219;-50
2022/03/19 08:05:52;;;;;;;5.82;4.60;;;;;;;7.37;55.48;103746.19;4983524;28;103959;-50
2022/03/19 08:08:19;;;;;;;6.78;5.55;;;;;;;7.39;55.42;103749.59;4993652;28;102469;-50
2022/03/19 08:10:47;;;;;;;5.35;4.35;;;;;;;7.39;55.79;103748.72;4991827;28;101997;-51
2022/03/19 08:13:14;;;;;;;8.13;4.53;;;;;;;7.39;55.56;103754.13;4994296;28;102203;-50
2022/03/19 08:15:42;;;;;;;5.07;4.40;;;;;;;7.39;56.51;103744.16;4992488;28;103957;-50
2022/03/19 08:18:10;;;;;;;7.22;4.40;;;;;;;7.41;55.77;103754.81;4992882;28;101927;-50
2022/03/19 08:20:39;;;;;;;5.18;4.10;;;;;;;7.39;55.59;103749.59;4996188;28;102471;-51
2022/03/19 08:23:08;;;;;;;7.05;4.82;;;;;;;7.40;55.70;103751.28;4985278;28;102445;-50
2022/03/19 08:25:37;;;;;;;5.07;4.20;;;;;;;7.40;55.88;103735.00;4972343;28;103915;-50
2022/03/19 08:28:05;;;;;;;6.87;4.70;;;;;;;7.42;55.95;103742.94;4973684;28;102233;-50
2022/03/19 08:30:34;;;;;;;5.65;4.55;;;;;;;7.40;56.80;103742.31;4980786;28;102377;-50
2022/03/19 08:33:02;;;;;;;5.07;4.57;;;;;;;7.40;55.71;103740.44;4992256;28;102221;-49
2022/03/19 08:35:29;;;;;;;5.55;4.32;;;;;;;7.40;56.22;103737.72;4987939;28;104046;-49
2022/03/19 08:40:42;;;;;;;6.35;4.55;;;;;;;7.40;56.16;103732.31;4984985;28;102408;-49
2022/03/19 08:43:10;;;;;;;4.78;4.28;;;;;;;7.40;55.24;103732.31;4989705;28;102654;-49
2022/03/19 08:45:37;;;;;;;8.57;4.43;;;;;;;7.41;56.23;103725.03;4981116;28;104119;-50
2022/03/19 08:48:05;;;;;;;6.97;4.20;;;;;;;7.39;56.56;103719.78;4982792;28;102602;-49
2022/03/19 08:50:33;;;;;;;7.00;4.25;;;;;;;7.40;56.06;103712.50;4988647;28;102572;-49
2022/03/19 08:52:59;;;;;;;6.07;4.13;;;;;;;7.40;55.41;103718.75;4988389;28;102366;-50
2022/03/19 08:55:26;;;;;;;6.88;4.32;;;;;;;7.41;56.01;103720.44;4990598;28;105183;-50
2022/03/19 08:57:52;;;;;;;5.00;3.75;;;;;;;7.40;55.07;103709.78;4992257;28;103048;-50
2022/03/19 09:00:20;;;;;;;7.90;4.30;;;;;;;7.41;54.93;103706.06;4988378;28;102601;-50
2022/03/19 09:02:47;;;;;;;6.53;3.72;;;;;;;7.41;55.60;103708.75;4987756;28;103215;-50
2022/03/19 09:05:14;;;;;;;6.45;4.43;;;;;;;7.40;55.01;103713.34;4989538;28;103888;-50
2022/03/19 09:07:41;;;;;;;6.45;4.55;;;;;;;7.40;55.89;103704.38;4972179;28;102033;-50
2022/03/19 09:10:09;;;;;;;5.72;4.57;;;;;;;7.40;55.08;103697.09;4975043;28;102107;-50
2022/03/19 09:12:49;;;;;;;5.82;3.92;;;;;;;7.39;55.38;103708.94;4992241;28;102323;-50
2022/03/19 09:15:20;;;;;;;5.22;4.15;;;;;;;7.39;56.30;103698.13;4989443;28;103974;-49
2022/03/19 09:17:46;;;;;;;5.53;4.45;;;;;;;7.39;55.22;103698.13;4986401;28;102858;-49
2022/03/19 09:20:16;;;;;;;5.35;4.00;;;;;;;7.39;55.96;103698.13;4991379;28;102062;-50
2022/03/19 09:22:43;;;;;;;4.63;3.70;;;;;;;7.39;56.00;103695.41;5006603;28;103110;-50
2022/03/19 09:25:09;;;;;;;4.85;3.75;;;;;;;7.39;54.86;103695.41;4989296;28;103981;-50
2022/03/19 09:27:39;;;;;;;4.90;3.58;;;;;;;7.39;55.86;103695.41;4992957;28;102442;-49
2022/03/19 09:30:08;;;;;;;6.43;4.15;;;;;;;7.39;55.54;103698.13;4987634;28;103247;-50
2022/03/19 09:32:36;;;;;;;6.30;4.23;;;;;;;7.39;55.27;103689.97;4988891;28;102329;-50
2022/03/19 09:35:04;;;;;;;4.28;3.50;;;;;;;7.38;55.13;103688.28;4986595;28;104237;-50
2022/03/19 09:37:31;;;;;;;5.32;3.95;;;;;;;7.38;55.66;103682.84;4972705;28;102352;-49
2022/03/19 09:39:59;;;;;;;7.05;3.80;;;;;;;7.38;54.87;103693.69;4983863;28;102066;-49
2022/03/19 09:42:28;;;;;;;4.25;3.45;;;;;;;7.39;55.13;103695.41;4983514;28;102235;-50
2022/03/19 09:44:55;;;;;;;5.15;3.45;;;;;;;7.38;55.05;103677.44;4983606;28;105453;-50
2022/03/19 09:47:21;;;;;;;5.35;3.78;;;;;;;7.40;55.06;103679.97;4985030;28;102734;-49
2022/03/19 09:49:50;;;;;;;4.45;3.53;;;;;;;7.39;54.77;103679.16;4990953;28;102396;-50
2022/03/19 09:52:20;;;;;;;4.43;3.77;;;;;;;7.39;55.34;103684.56;4989804;28;102142;-50
2022/03/19 09:54:47;;;;;;;5.05;3.65;;;;;;;7.40;54.89;103690.81;4987705;28;104126;-49
2022/03/19 09:57:14;;;;;;;7.65;3.50;;;;;;;7.40;54.58;103672.69;4985054;28;103967;-50
2022/03/19 09:59:40;;;;;;;7.15;3.70;;;;;;;7.39;55.85;103673.72;4985465;28;103196;-50
2022/03/19 10:02:10;;;;;;;4.25;3.70;;;;;;;7.39;55.17;103675.56;4990604;28;102186;-50
2022/03/19 10:04:39;;;;;;;5.00;3.58;;;;;;;7.38;56.12;103672.03;4989576;28;103844;-50
2022/03/19 10:09:54;;;;;;;3.42;2.95;;;;;;;7.39;56.17;103672.84;4988733;28;102009;-50
2022/03/19 10:12:27;;;;;;;5.35;3.63;;;;;;;7.39;55.46;103662.88;4981572;28;102598;-49
2022/03/19 10:14:56;;;;;;;5.18;3.47;;;;;;;7.38;55.31;103661.19;4987612;28;104051;-50
2022/03/19 10:17:29;;;;;;;5.40;4.03;;;;;;;7.39;54.97;103662.88;4987134;28;102632;-50
2022/03/19 10:20:02;;;;;;;3.60;2.92;;;;;;;7.39;55.09;103656.59;4987594;28;103431;-50
2022/03/19 10:22:31;;;;;;;6.35;3.20;;;;;;;7.38;54.80;103666.59;4988124;28;102865;-52
2022/03/19 10:25:00;;;;;;;3.50;3.17;;;;;;;7.37;55.99;103640.53;4990337;28;104112;-50
2022/03/19 10:27:31;;;;;;;4.13;3.30;;;;;;;7.38;55.37;103663.88;4975355;28;102387;-49
2022/03/19 10:30:05;;;;;;;4.10;2.80;;;;;;;7.37;55.92;103645.94;4977371;28;102752;-50
2022/03/19 10:32:32;;;;;;;5.13;3.50;;;;;;;7.39;55.34;103630.38;4991156;28;103076;-50
2022/03/19 10:34:59;;;;;;;3.90;2.78;;;;;;;7.37;55.08;103629.69;4989763;28;103959;-50
2022/03/19 10:37:38;;;;;;;4.10;3.00;;;;;;;7.38;55.44;103639.50;4979847;28;101914;-50
2022/03/19 10:40:06;;;;;;;5.50;2.90;;;;;;;7.38;55.29;103635.94;4980365;28;103564;-50
2022/03/19 10:42:38;;;;;;;4.05;2.95;;;;;;;7.38;55.27;103628.66;4989898;28;102059;-50
2022/03/19 10:45:08;;;;;;;3.22;2.78;;;;;;;7.38;55.29;103634.09;4987311;28;103930;-50
2022/03/19 10:47:42;;;;;;;5.78;2.50;;;;;;;7.36;54.71;103636.16;4990875;28;102018;-50
2022/03/19 10:50:10;;;;;;;3.17;2.63;;;;;;;7.37;55.38;103642.41;4978437;28;102626;-49
2022/03/19 10:52:39;;;;;;;4.28;2.50;;;;;;;7.36;55.00;103630.72;4987596;28;102218;-50
2022/03/19 10:55:07;;;;;;;3.85;2.78;;;;;;;7.37;54.57;103645.94;4989705;28;103800;-49
2022/03/19 10:57:34;;;;;;;3.05;2.40;;;;;;;7.37;55.11;103626.16;4988755;28;101971;-50
2022/03/19 11:00:01;;;;;;;2.58;2.35;;;;;;;7.36;54.63;103622.59;4987114;28;102303;-50
2022/03/19 11:02:30;;;;;;;4.45;2.75;;;;;;;7.36;55.27;103622.59;4991931;28;102526;-51
2022/03/19 11:04:58;;;;;;;;;;;;;;;7.35;55.60;103629.03;4981539;28;104212;-49
2022/03/19 11:07:32;;;;;;;3.53;2.67;;;;;;;7.35;54.93;103626.31;4986989;28;102478;-50
2022/03/19 11:10:04;;;;;;;3.35;2.55;;;;;;;7.36;55.52;103619.06;4987505;28;102482;-50
2022/03/19 11:12:32;;;;;;;5.05;3.08;;;;;;;7.36;54.75;103619.06;4988434;28;102067;-49
2022/03/19 11:15:03;;;;;;;3.60;2.72;;;;;;;7.35;54.78;103623.59;4987315;28;102962;-50
2022/03/19 11:17:33;;;;;;;3.80;2.65;;;;;;;7.36;55.08;103609.06;4992961;28;102488;-50
2022/03/19 11:20:01;;;;;;;5.20;2.58;;;;;;;7.36;55.07;103603.63;4992978;28;101937;-50
2022/03/19 11:22:30;;;;;;;3.42;2.55;;;;;;;7.36;55.44;103597.38;4989409;28;104370;-50
2022/03/19 11:25:06;;;;;;;4.57;2.65;;;;;;;7.36;54.40;103619.88;4990807;28;103853;-51
2022/03/19 11:27:36;;;;;;;3.85;2.63;;;;;;;7.36;54.89;103610.94;4976745;28;101811;-50
2022/03/19 11:30:06;;;;;;;6.88;3.00;;;;;;;7.35;55.24;103610.06;4973965;28;102297;-50
2022/03/19 11:32:33;;;;;;;5.50;3.20;;;;;;;7.34;55.04;103608.38;4976363;28;102472;-50
2022/03/19 11:35:01;;;;;;;3.58;2.88;;;;;;;7.35;55.63;103610.06;4992534;28;103994;-50
2022/03/19 11:38:00;;;;;;;4.28;2.78;;;;;;;7.34;55.04;103600.25;4975215;28;102058;-50
2022/03/19 11:40:32;;;;;;;3.72;2.25;;;;;;;7.35;55.40;103604.63;4979469;28;102920;-50
2022/03/19 11:43:05;;;;;;;5.68;2.40;;;;;;;7.35;55.04;103609.22;4992696;28;101967;-50
2022/03/19 11:45:53;;;;;;;4.32;2.42;;;;;;;7.34;54.61;103594.81;4991557;28;104024;-50
2022/03/19 11:48:40;;;;;;;3.40;2.53;;;;;;;7.35;55.38;103601.09;4993287;28;102771;-50
2022/03/19 11:51:33;;;;;;;3.42;2.63;;;;;;;7.34;54.96;103589.41;4990669;28;102107;-50
2022/03/19 11:54:03;;;;;;;6.40;2.70;;;;;;;7.34;54.77;103597.53;4993456;28;102308;-49
2022/03/19 11:57:08;;;;;;;3.22;2.25;;;;;;;7.33;54.81;103593.16;4990478;28;104020;-50